Lauro Muller, Brazil
Current Conditions -  °F | °C
As of 10:00 AM on Friday 31 Oct 2014 (Local Time) from SBCM Reporting Station
Scattered Clouds Scattered Clouds  
Wind Chill: 75°   Ceiling: Unl
Heat Index: 75°   Visibility: 6mi
Dew Point: 66°   Wind: 2mph
Humidity: 73%   Direction: 360°N
Pressure: 29.91"   Gusts: NA
Location:  28.39°S, 49.4°W
Report Text: SBCM 311200Z 36002KT 9999 SCT015 24/19 Q1013
Loading
Personal Weather Stations






























Interactive Weather Map
Tropical Storm Tracking
New forecast layout! Learn more

10-Day Weather Forecast

Advertisements
Track Severe Weather on mobile